Hyampom, California
Current Conditions -  °F | °C
As of 3:35 PM on Monday 22 Dec 2014 (Local Time) from KO54 Reporting Station
Clear Clear  
Wind Chill: 61°   Ceiling: Unl
Heat Index: 61°   Visibility: 10mi
Dew Point: 46°   Wind: 5mph
Humidity: 59%   Direction: 230°SW
Pressure: 30.26"   Gusts: NA
Location:  40.62°N, 123.45°W
Report Text: KO54 222335Z AUTO 23004KT 10SM CLR 16/08 A3026 RMK AO1
Loading
Personal Weather Stations






























Interactive Weather Map New forecast layout! Learn more

10-Day Weather Forecast

Advertisements
Track Severe Weather on mobile